Time;durP1;ratioP1;P1;durP2;ratioP2;P2;SDS_P1;SDS_P2;PMS_P1;PMS_P2;Temp;Humidity;BMP_temperature;BMP_pressure;BME280_temperature;BME280_humidity;BME280_pressure;Samples;Min_cycle;Max_cycle;Signal;HPM_P1;HPM_P2
2022/05/29 00:00:34;;;;;;;;;0.00;0.00;;;;;;;;5122833;27;61890;-74
2022/05/29 00:02:59;;;;;;;;;0.00;0.00;;;;;;;;5123587;27;61785;-74
2022/05/29 00:05:24;;;;;;;;;0.00;0.00;;;;;;;;5122421;27;61735;-73
2022/05/29 00:07:50;;;;;;;;;1.00;0.00;;;;;;;;5122084;27;61907;-74
2022/05/29 00:10:15;;;;;;;;;0.00;0.00;;;;;;;;5122887;27;62620;-74
2022/05/29 00:12:43;;;;;;;;;1.00;1.00;;;;;;;;5122129;27;61904;-74
2022/05/29 00:15:09;;;;;;;;;0.00;0.00;;;;;;;;5123205;27;62078;-74
2022/05/29 00:17:34;;;;;;;;;0.00;0.00;;;;;;;;5123717;27;61771;-73
2022/05/29 00:19:59;;;;;;;;;0.00;0.00;;;;;;;;5122869;27;62714;-73
2022/05/29 00:22:25;;;;;;;;;0.00;0.00;;;;;;;;5122066;27;62034;-73
2022/05/29 00:24:51;;;;;;;;;0.00;0.00;;;;;;;;5123353;27;61807;-73
2022/05/29 00:27:16;;;;;;;;;1.00;1.00;;;;;;;;5121972;27;61872;-74
2022/05/29 00:29:42;;;;;;;;;1.00;0.00;;;;;;;;5121250;27;63579;-73
2022/05/29 00:32:07;;;;;;;;;0.00;0.00;;;;;;;;5121814;27;61770;-73
2022/05/29 00:34:33;;;;;;;;;0.00;0.00;;;;;;;;5122142;27;61747;-74
2022/05/29 00:36:59;;;;;;;;;0.00;0.00;;;;;;;;5123492;27;62173;-73
2022/05/29 00:39:24;;;;;;;;;0.00;0.00;;;;;;;;5120876;27;64038;-73
2022/05/29 00:41:50;;;;;;;;;0.00;0.00;;;;;;;;5121983;27;62400;-73
2022/05/29 00:44:15;;;;;;;;;0.25;0.00;;;;;;;;5123494;27;61635;-73
2022/05/29 00:46:45;;;;;;;;;1.00;0.00;;;;;;;;5123024;27;62013;-73
2022/05/29 00:49:11;;;;;;;;;0.00;0.00;;;;;;;;5122659;27;62647;-73
2022/05/29 00:51:38;;;;;;;;;0.00;0.00;;;;;;;;5123146;27;61845;-74
2022/05/29 00:54:04;;;;;;;;;0.00;0.00;;;;;;;;5121352;27;61773;-73
2022/05/29 00:56:31;;;;;;;;;0.00;0.00;;;;;;;;5123290;27;61899;-73
2022/05/29 00:58:58;;;;;;;;;0.00;0.00;;;;;;;;5122588;27;62859;-73
2022/05/29 01:01:24;;;;;;;;;1.00;1.00;;;;;;;;5121239;27;61874;-74
2022/05/29 01:03:49;;;;;;;;;0.00;0.00;;;;;;;;5123000;27;61874;-74
2022/05/29 01:06:14;;;;;;;;;0.00;0.00;;;;;;;;5122978;27;61826;-73
2022/05/29 01:08:40;;;;;;;;;0.00;0.00;;;;;;;;5120642;27;63630;-73
2022/05/29 01:11:08;;;;;;;;;0.00;0.00;;;;;;;;5122787;27;62032;-73
2022/05/29 01:14:08;;;;;;;;;0.00;0.00;;;;;;;;5123025;27;61689;-73
2022/05/29 01:16:52;;;;;;;;;0.00;0.00;;;;;;;;5062081;28;62041;-74
2022/05/29 01:19:24;;;;;;;;;0.00;0.00;;;;;;;;5061611;28;62633;-74
2022/05/29 01:22:02;;;;;;;;;1.00;0.00;;;;;;;;5062142;28;61979;-73
2022/05/29 01:24:42;;;;;;;;;0.00;0.00;;;;;;;;5062305;28;61818;-73
2022/05/29 01:27:43;;;;;;;;;0.00;0.00;;;;;;;;5062299;28;61892;-73
2022/05/29 01:30:14;;;;;;;;;0.00;0.00;;;;;;;;5021132;28;62071;-73
2022/05/29 01:32:45;;;;;;;;;0.00;0.00;;;;;;;;5022175;28;61763;-74
2022/05/29 01:35:28;;;;;;;;;0.00;0.00;;;;;;;;5022079;28;62120;-74
2022/05/29 01:38:02;;;;;;;;;0.25;0.25;;;;;;;;5021570;28;62048;-73
2022/05/29 01:40:42;;;;;;;;;0.25;0.25;;;;;;;;5021214;28;62815;-74
2022/05/29 01:43:18;;;;;;;;;0.00;0.00;;;;;;;;5021818;28;62104;-73
2022/05/29 01:45:55;;;;;;;;;1.75;0.00;;;;;;;;5021720;28;61810;-74
2022/05/29 01:48:39;;;;;;;;;0.00;0.00;;;;;;;;5021928;28;61999;-73
2022/05/29 01:51:07;;;;;;;;;0.00;0.00;;;;;;;;5076926;27;61818;-73
2022/05/29 01:53:35;;;;;;;;;0.00;0.00;;;;;;;;5085215;27;61908;-73
2022/05/29 01:56:05;;;;;;;;;0.00;0.00;;;;;;;;5085387;27;61909;-74
2022/05/29 01:58:42;;;;;;;;;0.25;0.25;;;;;;;;5102616;27;61918;-74
2022/05/29 02:01:09;;;;;;;;;0.50;0.50;;;;;;;;5101725;27;61981;-74
2022/05/29 02:03:43;;;;;;;;;0.00;0.00;;;;;;;;5102901;27;61832;-73
2022/05/29 02:06:14;;;;;;;;;0.00;0.00;;;;;;;;5104808;27;61970;-74
2022/05/29 02:08:45;;;;;;;;;0.25;0.25;;;;;;;;5105190;27;61821;-73
2022/05/29 02:11:30;;;;;;;;;0.00;0.00;;;;;;;;5104336;27;62830;-73
2022/05/29 02:13:58;;;;;;;;;1.00;0.00;;;;;;;;5104499;27;61714;-73
2022/05/29 02:16:39;;;;;;;;;0.00;0.00;;;;;;;;5104160;27;61860;-73
2022/05/29 02:19:24;;;;;;;;;0.50;0.00;;;;;;;;5104819;27;61805;-73
2022/05/29 02:21:56;;;;;;;;;1.50;0.50;;;;;;;;5102538;27;65139;-73
2022/05/29 02:24:24;;;;;;;;;0.50;0.50;;;;;;;;5104433;27;61872;-73
2022/05/29 02:26:55;;;;;;;;;0.00;0.00;;;;;;;;5101954;27;61915;-74
2022/05/29 02:29:21;;;;;;;;;0.00;0.00;;;;;;;;5103550;27;62046;-73
2022/05/29 02:31:52;;;;;;;;;0.00;0.00;;;;;;;;5103636;27;63131;-73
2022/05/29 02:34:18;;;;;;;;;0.00;0.00;;;;;;;;5104392;27;61709;-73
2022/05/29 02:36:52;;;;;;;;;0.75;0.00;;;;;;;;5104127;27;61702;-73
2022/05/29 02:39:22;;;;;;;;;0.25;0.00;;;;;;;;5103030;27;61899;-73
2022/05/29 02:41:47;;;;;;;;;1.25;0.00;;;;;;;;5103816;27;61828;-73
2022/05/29 02:44:25;;;;;;;;;1.00;1.00;;;;;;;;5104485;27;61922;-73
2022/05/29 02:46:58;;;;;;;;;1.00;1.00;;;;;;;;5103999;27;61848;-73
2022/05/29 02:49:36;;;;;;;;;0.50;0.00;;;;;;;;5104264;27;61745;-73
2022/05/29 02:52:07;;;;;;;;;0.50;0.50;;;;;;;;5103679;27;61832;-73
2022/05/29 02:54:33;;;;;;;;;0.00;0.00;;;;;;;;5122220;27;61765;-73
2022/05/29 02:56:59;;;;;;;;;0.75;0.75;;;;;;;;5124640;27;61855;-73
2022/05/29 02:59:43;;;;;;;;;0.25;0.25;;;;;;;;5123444;27;62183;-73
2022/05/29 03:02:15;;;;;;;;;1.00;0.00;;;;;;;;5123904;27;61940;-73
2022/05/29 03:04:40;;;;;;;;;0.00;0.00;;;;;;;;5124531;27;61883;-73
2022/05/29 03:07:15;;;;;;;;;1.50;0.75;;;;;;;;5124251;27;61666;-73
2022/05/29 03:09:52;;;;;;;;;1.00;0.75;;;;;;;;5123339;27;61916;-73
2022/05/29 03:12:26;;;;;;;;;2.00;1.00;;;;;;;;5123815;27;62101;-73
2022/05/29 03:14:52;;;;;;;;;0.00;0.00;;;;;;;;5123356;27;61793;-73
2022/05/29 03:17:20;;;;;;;;;1.00;1.00;;;;;;;;5123589;27;62084;-73
2022/05/29 03:19:52;;;;;;;;;0.00;0.00;;;;;;;;5123213;27;61777;-73
2022/05/29 03:22:17;;;;;;;;;1.25;0.00;;;;;;;;5123922;27;61889;-73
2022/05/29 03:24:58;;;;;;;;;1.00;1.00;;;;;;;;5124430;27;62055;-73
2022/05/29 03:27:24;;;;;;;;;0.00;0.00;;;;;;;;5124311;27;61934;-74
2022/05/29 03:29:49;;;;;;;;;0.00;0.00;;;;;;;;5124434;27;61667;-73
2022/05/29 03:32:15;;;;;;;;;0.00;0.00;;;;;;;;5121835;27;62684;-73
2022/05/29 03:34:40;;;;;;;;;2.00;0.00;;;;;;;;5124166;27;61588;-73
2022/05/29 03:37:06;;;;;;;;;0.00;0.00;;;;;;;;5123410;27;62030;-73
2022/05/29 03:39:32;;;;;;;;;0.00;0.00;;;;;;;;5124014;27;61700;-74
2022/05/29 03:41:57;;;;;;;;;0.75;0.00;;;;;;;;5123444;27;62005;-73
2022/05/29 03:44:23;;;;;;;;;0.50;0.50;;;;;;;;5122600;27;62021;-73
2022/05/29 03:46:48;;;;;;;;;0.00;0.00;;;;;;;;5123482;27;62042;-73
2022/05/29 03:49:15;;;;;;;;;0.25;0.25;;;;;;;;5124318;27;62050;-73
2022/05/29 03:51:41;;;;;;;;;2.00;0.00;;;;;;;;5122921;27;61820;-74
2022/05/29 03:54:07;;;;;;;;;0.25;0.25;;;;;;;;5123937;27;61826;-73
2022/05/29 03:56:33;;;;;;;;;0.00;0.00;;;;;;;;5122470;27;62039;-73
2022/05/29 03:58:58;;;;;;;;;0.25;0.25;;;;;;;;5124182;27;61775;-73
2022/05/29 04:01:24;;;;;;;;;2.00;0.00;;;;;;;;5122772;27;62621;-73
2022/05/29 04:03:50;;;;;;;;;0.75;0.25;;;;;;;;5122325;27;61948;-73
2022/05/29 04:06:15;;;;;;;;;1.75;1.00;;;;;;;;5123667;27;61700;-73
2022/05/29 04:14:09;;;;;;;;;0.00;0.00;;;;;;;;5124037;27;61681;-73
2022/05/29 04:16:34;;;;;;;;;1.00;1.00;;;;;;;;5121437;27;61894;-73
2022/05/29 04:18:59;;;;;;;;;0.00;0.00;;;;;;;;5122294;27;62409;-73
2022/05/29 04:21:25;;;;;;;;;2.00;0.00;;;;;;;;5122987;27;61882;-74
2022/05/29 04:23:50;;;;;;;;;0.25;0.25;;;;;;;;5121910;27;61851;-73
2022/05/29 04:26:16;;;;;;;;;1.00;1.00;;;;;;;;5123606;27;61677;-73
2022/05/29 04:28:41;;;;;;;;;4.50;0.50;;;;;;;;5123508;27;61696;-73
2022/05/29 04:31:07;;;;;;;;;0.00;0.00;;;;;;;;5122552;27;62775;-73
2022/05/29 04:33:32;;;;;;;;;2.00;1.00;;;;;;;;5122018;27;61945;-73
2022/05/29 04:35:57;;;;;;;;;0.00;0.00;;;;;;;;5121898;27;61764;-73
2022/05/29 04:38:23;;;;;;;;;0.00;0.00;;;;;;;;5123118;27;62060;-73
2022/05/29 04:40:49;;;;;;;;;0.50;0.50;;;;;;;;5122784;27;62744;-74
2022/05/29 04:43:14;;;;;;;;;1.00;1.00;;;;;;;;5121857;27;61783;-73
2022/05/29 04:45:40;;;;;;;;;2.00;1.00;;;;;;;;5122745;27;61886;-73
2022/05/29 04:48:06;;;;;;;;;1.00;1.00;;;;;;;;5123514;27;61692;-74
2022/05/29 04:50:31;;;;;;;;;0.50;0.00;;;;;;;;5124555;27;61703;-73
2022/05/29 04:52:57;;;;;;;;;0.00;0.00;;;;;;;;5124949;27;61898;-73
2022/05/29 04:55:22;;;;;;;;;0.00;0.00;;;;;;;;5126829;27;61655;-73
2022/05/29 04:57:47;;;;;;;;;3.00;0.00;;;;;;;;5126774;27;61673;-73
2022/05/29 05:00:13;;;;;;;;;0.00;0.00;;;;;;;;5125743;27;61994;-73
2022/05/29 05:02:39;;;;;;;;;0.25;0.25;;;;;;;;5126481;27;61685;-73
2022/05/29 05:05:04;;;;;;;;;3.00;0.75;;;;;;;;5126588;27;61665;-73
2022/05/29 05:07:30;;;;;;;;;0.50;0.25;;;;;;;;5125963;27;61901;-75
2022/05/29 05:09:55;;;;;;;;;0.00;0.00;;;;;;;;5125845;27;61689;-74
2022/05/29 05:12:20;;;;;;;;;4.00;1.00;;;;;;;;5124795;27;62069;-74
2022/05/29 05:14:46;;;;;;;;;2.00;0.75;;;;;;;;5126389;27;61688;-73
2022/05/29 05:17:11;;;;;;;;;1.00;1.00;;;;;;;;5126116;27;61959;-74
2022/05/29 05:19:36;;;;;;;;;0.00;0.00;;;;;;;;5125745;27;61879;-74
2022/05/29 05:22:03;;;;;;;;;1.00;0.00;;;;;;;;5126283;27;61785;-74
2022/05/29 05:24:28;;;;;;;;;0.00;0.00;;;;;;;;5126413;27;61723;-74
2022/05/29 05:26:54;;;;;;;;;1.25;0.75;;;;;;;;5126544;27;61980;-74
2022/05/29 05:29:19;;;;;;;;;1.00;1.00;;;;;;;;5124082;27;62695;-74
2022/05/29 05:31:45;;;;;;;;;0.75;0.75;;;;;;;;5125563;27;62065;-74
2022/05/29 05:34:10;;;;;;;;;0.00;0.00;;;;;;;;5126301;27;61807;-74
2022/05/29 05:36:36;;;;;;;;;0.00;0.00;;;;;;;;5126217;27;62061;-74
2022/05/29 05:39:01;;;;;;;;;0.50;0.50;;;;;;;;5125250;27;61815;-74
2022/05/29 05:41:26;;;;;;;;;2.25;0.00;;;;;;;;5124418;27;61812;-74
2022/05/29 05:43:51;;;;;;;;;0.00;0.00;;;;;;;;5125697;27;61835;-74
2022/05/29 05:46:18;;;;;;;;;0.00;0.00;;;;;;;;5125966;27;61905;-74
2022/05/29 05:48:43;;;;;;;;;0.00;0.00;;;;;;;;5125485;27;62594;-74
2022/05/29 05:51:10;;;;;;;;;0.00;0.00;;;;;;;;5125670;27;61772;-74
2022/05/29 05:53:36;;;;;;;;;0.00;0.00;;;;;;;;5125687;27;61588;-74
2022/05/29 05:56:05;;;;;;;;;1.00;1.00;;;;;;;;5126020;27;62025;-74
2022/05/29 05:58:31;;;;;;;;;0.25;0.25;;;;;;;;5124889;27;61764;-74
2022/05/29 06:00:56;;;;;;;;;0.00;0.00;;;;;;;;5124787;27;61922;-74
2022/05/29 06:03:21;;;;;;;;;0.00;0.00;;;;;;;;5125832;27;61770;-74
2022/05/29 06:05:48;;;;;;;;;0.00;0.00;;;;;;;;5125686;27;61736;-74
2022/05/29 06:08:13;;;;;;;;;0.00;0.00;;;;;;;;5124600;27;61748;-74
2022/05/29 06:10:39;;;;;;;;;0.00;0.00;;;;;;;;5125464;27;61671;-74
2022/05/29 06:13:05;;;;;;;;;0.00;0.00;;;;;;;;5123585;27;61825;-74
2022/05/29 06:15:31;;;;;;;;;0.00;0.00;;;;;;;;5125447;27;61686;-74
2022/05/29 06:17:56;;;;;;;;;1.00;0.50;;;;;;;;5124641;27;62660;-74
2022/05/29 06:20:22;;;;;;;;;0.00;0.00;;;;;;;;5125302;27;61632;-74
2022/05/29 06:22:47;;;;;;;;;2.00;0.00;;;;;;;;5125482;27;61811;-74
2022/05/29 06:25:12;;;;;;;;;0.00;0.00;;;;;;;;5124074;27;62082;-74
2022/05/29 06:27:39;;;;;;;;;0.00;0.00;;;;;;;;5124392;27;61863;-74
2022/05/29 06:30:05;;;;;;;;;0.25;0.25;;;;;;;;5125272;27;61802;-74
2022/05/29 06:32:31;;;;;;;;;0.50;0.00;;;;;;;;5124949;27;61985;-74
2022/05/29 06:34:56;;;;;;;;;0.00;0.00;;;;;;;;5125371;27;62124;-74
2022/05/29 06:37:21;;;;;;;;;1.00;1.00;;;;;;;;5124149;27;61832;-74
2022/05/29 06:39:47;;;;;;;;;0.00;0.00;;;;;;;;5124971;27;61822;-74
2022/05/29 06:42:13;;;;;;;;;0.00;0.00;;;;;;;;5123489;27;61983;-74
2022/05/29 06:44:40;;;;;;;;;1.00;1.00;;;;;;;;5125321;27;61715;-74
2022/05/29 06:47:09;;;;;;;;;2.50;0.00;;;;;;;;5123687;27;61942;-74
2022/05/29 06:49:35;;;;;;;;;0.00;0.00;;;;;;;;5124994;27;61967;-74
2022/05/29 06:52:00;;;;;;;;;0.00;0.00;;;;;;;;5124962;27;61994;-74
2022/05/29 06:54:25;;;;;;;;;0.00;0.00;;;;;;;;5124626;27;62072;-74
2022/05/29 06:56:51;;;;;;;;;0.00;0.00;;;;;;;;5124062;27;62035;-75
2022/05/29 06:59:16;;;;;;;;;0.00;0.00;;;;;;;;5124495;27;61763;-74
2022/05/29 07:07:11;;;;;;;;;2.00;0.00;;;;;;;;5123402;27;61850;-74
2022/05/29 07:09:39;;;;;;;;;0.00;0.00;;;;;;;;5124389;27;61910;-74
2022/05/29 07:12:12;;;;;;;;;0.00;0.00;;;;;;;;5123673;27;61650;-75
2022/05/29 07:14:39;;;;;;;;;1.00;0.00;;;;;;;;5124987;27;61745;-74
2022/05/29 07:17:05;;;;;;;;;1.75;0.25;;;;;;;;5123381;27;61980;-74
2022/05/29 07:19:30;;;;;;;;;0.00;0.00;;;;;;;;5124401;27;61772;-74
2022/05/29 07:21:57;;;;;;;;;0.00;0.00;;;;;;;;5124248;27;62204;-74
2022/05/29 07:24:22;;;;;;;;;0.00;0.00;;;;;;;;5123039;27;62027;-74
2022/05/29 07:26:48;;;;;;;;;0.00;0.00;;;;;;;;5122257;27;64728;-74
2022/05/29 07:29:17;;;;;;;;;0.00;0.00;;;;;;;;5122884;27;61909;-74
2022/05/29 07:31:42;;;;;;;;;0.00;0.00;;;;;;;;5123964;27;61811;-74
2022/05/29 07:34:07;;;;;;;;;0.50;0.00;;;;;;;;5123253;27;61811;-74
2022/05/29 07:36:33;;;;;;;;;0.00;0.00;;;;;;;;5123525;27;62127;-74
2022/05/29 07:38:58;;;;;;;;;0.00;0.00;;;;;;;;5123658;27;62065;-74
2022/05/29 07:44:07;;;;;;;;;0.25;0.25;;;;;;;;5124616;27;61740;-74
2022/05/29 07:46:33;;;;;;;;;0.00;0.00;;;;;;;;5123241;27;62889;-74
2022/05/29 07:48:58;;;;;;;;;0.00;0.00;;;;;;;;5123853;27;61766;-74
2022/05/29 07:51:24;;;;;;;;;0.00;0.00;;;;;;;;5122651;27;61903;-74
2022/05/29 07:53:49;;;;;;;;;0.00;0.00;;;;;;;;5123769;27;61862;-74
2022/05/29 07:56:16;;;;;;;;;0.75;0.00;;;;;;;;5123369;27;61841;-74
2022/05/29 07:58:42;;;;;;;;;0.00;0.00;;;;;;;;5122570;27;61719;-75
2022/05/29 08:01:07;;;;;;;;;0.00;0.00;;;;;;;;5123295;27;62144;-73
2022/05/29 08:03:32;;;;;;;;;0.00;0.00;;;;;;;;5122754;27;62006;-74
2022/05/29 08:05:58;;;;;;;;;0.00;0.00;;;;;;;;5123411;27;61770;-74
2022/05/29 08:08:24;;;;;;;;;0.00;0.00;;;;;;;;5123179;27;61967;-75
2022/05/29 08:10:50;;;;;;;;;1.50;0.00;;;;;;;;5123913;27;62629;-75
2022/05/29 08:13:15;;;;;;;;;1.75;0.00;;;;;;;;5122251;27;62057;-75
2022/05/29 08:15:40;;;;;;;;;0.75;0.00;;;;;;;;5121252;27;63730;-75
2022/05/29 08:18:06;;;;;;;;;0.00;0.00;;;;;;;;5122085;27;61898;-75
2022/05/29 08:20:31;;;;;;;;;1.00;1.00;;;;;;;;5123603;27;62007;-75
2022/05/29 08:22:57;;;;;;;;;0.00;0.00;;;;;;;;5123534;27;61858;-75
2022/05/29 08:30:53;;;;;;;;;0.00;0.00;;;;;;;;5126810;27;61967;-75
2022/05/29 08:33:23;;;;;;;;;1.00;0.00;;;;;;;;5127321;27;61750;-75
2022/05/29 08:36:00;;;;;;;;;0.00;0.00;;;;;;;;5125003;27;62584;-74
2022/05/29 08:38:26;;;;;;;;;1.00;0.00;;;;;;;;5126186;27;62026;-74
2022/05/29 08:40:54;;;;;;;;;2.00;2.00;;;;;;;;5127059;27;61721;-74
2022/05/29 08:43:25;;;;;;;;;0.00;0.00;;;;;;;;5125758;27;62042;-74
2022/05/29 08:45:51;;;;;;;;;0.25;0.00;;;;;;;;5125861;27;61831;-75
2022/05/29 08:48:23;;;;;;;;;0.00;0.00;;;;;;;;5126681;27;61964;-74
2022/05/29 08:51:03;;;;;;;;;0.00;0.00;;;;;;;;5126796;27;61870;-74
2022/05/29 08:53:51;;;;;;;;;0.00;0.00;;;;;;;;5126735;27;61766;-75
2022/05/29 08:56:35;;;;;;;;;0.00;0.00;;;;;;;;5124597;27;63728;-74
2022/05/29 08:59:03;;;;;;;;;1.25;0.00;;;;;;;;5126574;27;61687;-74
2022/05/29 09:01:49;;;;;;;;;0.00;0.00;;;;;;;;5126437;27;62010;-75
2022/05/29 09:04:22;;;;;;;;;0.00;0.00;;;;;;;;5125524;27;61790;-74
2022/05/29 09:06:49;;;;;;;;;0.00;0.00;;;;;;;;5125780;27;61814;-75
2022/05/29 09:09:24;;;;;;;;;0.00;0.00;;;;;;;;5126296;27;61825;-75
2022/05/29 09:11:51;;;;;;;;;0.00;0.00;;;;;;;;5126225;27;61914;-75
2022/05/29 09:14:32;;;;;;;;;0.00;0.00;;;;;;;;5125417;27;61981;-75
2022/05/29 09:17:02;;;;;;;;;0.00;0.00;;;;;;;;5125457;27;61918;-75
2022/05/29 09:19:33;;;;;;;;;0.00;0.00;;;;;;;;5124892;27;61854;-75
2022/05/29 09:22:01;;;;;;;;;0.00;0.00;;;;;;;;5126119;27;61822;-75
2022/05/29 09:24:26;;;;;;;;;0.00;0.00;;;;;;;;5125130;27;61916;-75
2022/05/29 09:26:52;;;;;;;;;0.00;0.00;;;;;;;;5124076;27;64730;-75
2022/05/29 09:29:18;;;;;;;;;0.00;0.00;;;;;;;;5126104;27;62101;-74
2022/05/29 09:31:43;;;;;;;;;0.25;0.25;;;;;;;;5125811;27;61960;-74
2022/05/29 09:34:08;;;;;;;;;1.00;0.00;;;;;;;;5126560;27;61825;-74
2022/05/29 09:36:53;;;;;;;;;0.00;0.00;;;;;;;;5123164;27;63494;-74
2022/05/29 09:39:18;;;;;;;;;0.00;0.00;;;;;;;;5125854;27;61720;-74
2022/05/29 09:42:16;;;;;;;;;2.75;1.00;;;;;;;;5124127;27;61842;-75
2022/05/29 09:45:01;;;;;;;;;0.00;0.00;;;;;;;;5079702;27;61712;-74
2022/05/29 09:50:14;;;;;;;;;0.00;0.00;;;;;;;;5125655;27;61783;-74
2022/05/29 09:52:43;;;;;;;;;0.00;0.00;;;;;;;;5123762;27;61816;-75
2022/05/29 09:55:21;;;;;;;;;0.00;0.00;;;;;;;;5126010;27;61647;-75
2022/05/29 09:57:51;;;;;;;;;0.00;0.00;;;;;;;;5123457;27;64844;-74
2022/05/29 10:00:36;;;;;;;;;0.75;0.75;;;;;;;;5125468;27;61845;-74
2022/05/29 10:03:04;;;;;;;;;1.50;0.00;;;;;;;;5125109;27;61843;-75
2022/05/29 10:05:34;;;;;;;;;0.00;0.00;;;;;;;;5125705;27;61733;-75
2022/05/29 10:08:16;;;;;;;;;0.50;0.00;;;;;;;;5124436;27;61976;-75
2022/05/29 10:10:41;;;;;;;;;0.00;0.00;;;;;;;;5125655;27;61676;-74
2022/05/29 10:13:07;;;;;;;;;1.00;1.00;;;;;;;;5125182;27;61918;-75
2022/05/29 10:15:37;;;;;;;;;0.25;0.25;;;;;;;;5125586;27;62084;-75
2022/05/29 10:18:09;;;;;;;;;0.00;0.00;;;;;;;;5124420;27;62854;-75
2022/05/29 10:20:44;;;;;;;;;0.00;0.00;;;;;;;;5125424;27;61856;-75
2022/05/29 10:23:29;;;;;;;;;0.00;0.00;;;;;;;;5125256;27;62152;-75
2022/05/29 10:25:54;;;;;;;;;2.00;0.75;;;;;;;;5125485;27;62288;-75
2022/05/29 10:28:24;;;;;;;;;0.00;0.00;;;;;;;;5124465;27;61805;-75
2022/05/29 10:31:03;;;;;;;;;1.00;1.00;;;;;;;;5123352;27;62079;-74
2022/05/29 10:33:30;;;;;;;;;1.25;0.50;;;;;;;;5125271;27;62243;-75
2022/05/29 10:35:58;;;;;;;;;2.00;1.00;;;;;;;;5123755;27;62169;-75
2022/05/29 10:38:28;;;;;;;;;0.00;0.00;;;;;;;;5124143;27;61833;-74
2022/05/29 10:40:55;;;;;;;;;0.00;0.00;;;;;;;;5123698;27;62057;-75
2022/05/29 10:43:39;;;;;;;;;0.00;0.00;;;;;;;;5123567;27;61778;-75
2022/05/29 10:46:13;;;;;;;;;0.50;0.00;;;;;;;;5125106;27;61852;-74
2022/05/29 10:48:56;;;;;;;;;0.00;0.00;;;;;;;;5121273;27;63619;-74
2022/05/29 10:51:22;;;;;;;;;0.00;0.00;;;;;;;;5124853;27;61659;-75
2022/05/29 10:53:53;;;;;;;;;0.00;0.00;;;;;;;;5124407;27;61902;-74
2022/05/29 10:56:18;;;;;;;;;0.00;0.00;;;;;;;;5125036;27;61775;-74
2022/05/29 10:58:52;;;;;;;;;0.00;0.00;;;;;;;;5123990;27;61881;-75
2022/05/29 11:04:30;;;;;;;;;1.00;0.50;;;;;;;;5124828;27;61839;-75
2022/05/29 11:07:14;;;;;;;;;1.25;0.00;;;;;;;;5124725;27;62009;-74
2022/05/29 11:09:48;;;;;;;;;2.25;0.00;;;;;;;;5117369;27;61821;-75
2022/05/29 11:12:20;;;;;;;;;1.00;1.00;;;;;;;;5120781;27;61998;-75
2022/05/29 11:14:46;;;;;;;;;0.50;0.00;;;;;;;;5120797;27;61726;-75
2022/05/29 11:17:17;;;;;;;;;0.00;0.00;;;;;;;;5119328;27;61923;-76
2022/05/29 11:19:45;;;;;;;;;1.50;0.00;;;;;;;;5120499;27;61795;-75
2022/05/29 11:22:30;;;;;;;;;0.00;0.00;;;;;;;;5118832;27;61723;-75
2022/05/29 11:25:03;;;;;;;;;0.25;0.25;;;;;;;;5120640;27;61852;-75
2022/05/29 11:27:43;;;;;;;;;0.00;0.00;;;;;;;;5118193;27;63467;-75
2022/05/29 11:30:17;;;;;;;;;1.75;1.50;;;;;;;;5120272;27;61928;-75
2022/05/29 11:32:51;;;;;;;;;0.25;0.25;;;;;;;;5118653;27;61777;-75
2022/05/29 11:35:33;;;;;;;;;1.00;1.00;;;;;;;;5120343;27;61908;-75
2022/05/29 11:38:07;;;;;;;;;0.00;0.00;;;;;;;;5118964;27;61759;-75
2022/05/29 11:40:35;;;;;;;;;1.00;0.50;;;;;;;;5120002;27;61924;-75
2022/05/29 11:43:21;;;;;;;;;0.00;0.00;;;;;;;;5119854;27;61681;-75
2022/05/29 11:52:01;;;;;;;;;1.00;1.00;;;;;;;;5119636;27;61986;-76
2022/05/29 11:54:31;;;;;;;;;0.50;0.50;;;;;;;;5119696;27;61916;-76
2022/05/29 11:56:56;;;;;;;;;0.25;0.25;;;;;;;;5119804;27;62094;-76
2022/05/29 11:59:25;;;;;;;;;1.00;1.00;;;;;;;;5118585;27;61950;-75
2022/05/29 12:01:55;;;;;;;;;1.50;0.75;;;;;;;;5118139;27;61707;-76
2022/05/29 12:04:33;;;;;;;;;0.00;0.00;;;;;;;;5118558;27;61970;-76
2022/05/29 12:06:59;;;;;;;;;0.00;0.00;;;;;;;;5119607;27;61829;-75
2022/05/29 12:09:24;;;;;;;;;1.00;0.00;;;;;;;;5117040;27;63965;-76
2022/05/29 12:12:06;;;;;;;;;1.00;0.00;;;;;;;;5118091;27;61793;-75
2022/05/29 12:14:46;;;;;;;;;0.00;0.00;;;;;;;;5119621;27;62251;-76
2022/05/29 12:17:17;;;;;;;;;0.00;0.00;;;;;;;;5119144;27;61919;-75
2022/05/29 12:19:47;;;;;;;;;0.00;0.00;;;;;;;;5113122;27;62093;-76
2022/05/29 12:22:14;;;;;;;;;2.00;0.33;;;;;;;;5105588;27;61799;-76
2022/05/29 12:24:42;;;;;;;;;0.00;0.00;;;;;;;;5105616;27;61891;-76
2022/05/29 12:27:13;;;;;;;;;0.00;0.00;;;;;;;;5105580;27;61685;-76
2022/05/29 12:29:41;;;;;;;;;0.00;0.00;;;;;;;;5103180;27;63663;-75
2022/05/29 12:32:13;;;;;;;;;0.00;0.00;;;;;;;;5105197;27;61706;-76
2022/05/29 12:34:44;;;;;;;;;3.00;0.00;;;;;;;;5105577;27;61911;-76
2022/05/29 12:37:19;;;;;;;;;0.00;0.00;;;;;;;;5105199;27;61941;-76
2022/05/29 12:40:07;;;;;;;;;1.00;0.00;;;;;;;;5104643;27;62705;-76
2022/05/29 12:42:33;;;;;;;;;0.00;0.00;;;;;;;;5065192;28;61813;-76
2022/05/29 12:45:07;;;;;;;;;0.00;0.00;;;;;;;;5082044;28;61857;-76
2022/05/29 12:47:35;;;;;;;;;3.67;0.00;;;;;;;;5065030;28;61944;-76
2022/05/29 12:50:06;;;;;;;;;1.67;0.00;;;;;;;;5081671;28;61960;-75
2022/05/29 12:52:50;;;;;;;;;1.00;1.00;;;;;;;;5081694;28;62028;-76
2022/05/29 12:55:34;;;;;;;;;0.00;0.00;;;;;;;;5082018;28;62206;-76
2022/05/29 12:58:08;;;;;;;;;1.67;0.67;;;;;;;;5098894;27;61871;-76
2022/05/29 13:00:40;;;;;;;;;0.00;0.00;;;;;;;;5064148;28;65012;-75
2022/05/29 13:03:23;;;;;;;;;0.67;0.67;;;;;;;;5081874;28;61893;-76
2022/05/29 13:06:02;;;;;;;;;0.67;0.67;;;;;;;;5081944;28;61904;-75
2022/05/29 13:08:33;;;;;;;;;0.00;0.00;;;;;;;;5081712;28;62057;-75
2022/05/29 13:11:00;;;;;;;;;1.00;0.00;;;;;;;;5081374;28;61873;-76
2022/05/29 13:13:34;;;;;;;;;0.33;0.00;;;;;;;;5098692;27;61909;-75
2022/05/29 13:16:19;;;;;;;;;3.00;0.00;;;;;;;;5081761;28;61993;-76
2022/05/29 13:19:21;;;;;;;;;0.00;0.00;;;;;;;;5085173;27;61928;-76
2022/05/29 13:21:53;;;;;;;;;0.00;0.00;;;;;;;;5080842;28;61924;-76
2022/05/29 13:24:18;;;;;;;;;0.00;0.00;;;;;;;;5064504;28;61807;-76
2022/05/29 13:26:44;;;;;;;;;0.00;0.00;;;;;;;;5081687;28;61801;-76
2022/05/29 13:29:29;;;;;;;;;0.00;0.00;;;;;;;;5081788;28;61803;-75
2022/05/29 13:32:09;;;;;;;;;1.00;0.00;;;;;;;;5079284;28;62851;-76
2022/05/29 13:34:34;;;;;;;;;0.00;0.00;;;;;;;;5081588;28;61847;-75
2022/05/29 13:37:02;;;;;;;;;1.00;0.00;;;;;;;;5081312;28;61913;-76
2022/05/29 13:39:27;;;;;;;;;1.00;1.00;;;;;;;;5064324;28;61894;-75
2022/05/29 13:41:55;;;;;;;;;0.00;0.00;;;;;;;;5063392;28;65190;-75
2022/05/29 13:44:31;;;;;;;;;0.00;0.00;;;;;;;;5081436;28;62115;-75
2022/05/29 13:47:16;;;;;;;;;1.00;1.00;;;;;;;;5063805;28;62124;-75
2022/05/29 13:49:56;;;;;;;;;2.33;0.00;;;;;;;;5081480;28;62002;-75
2022/05/29 13:52:23;;;;;;;;;0.00;0.00;;;;;;;;5097383;27;63549;-75
2022/05/29 13:55:08;;;;;;;;;1.33;0.00;;;;;;;;5081475;28;62017;-75
2022/05/29 14:06:19;;;;;;;;;0.00;0.00;;;;;;;;5103984;27;61688;-76
2022/05/29 14:08:49;;;;;;;;;0.00;0.00;;;;;;;;5103459;27;61802;-76
2022/05/29 14:11:15;;;;;;;;;1.00;1.00;;;;;;;;5103629;27;62070;-76
2022/05/29 14:13:46;;;;;;;;;1.00;1.00;;;;;;;;5103343;27;62770;-75
2022/05/29 14:16:11;;;;;;;;;2.00;0.00;;;;;;;;5103555;27;61683;-75
2022/05/29 14:18:43;;;;;;;;;0.00;0.00;;;;;;;;5103855;27;62459;-76
2022/05/29 14:21:41;;;;;;;;;1.00;1.00;;;;;;;;5104138;27;61873;-75
2022/05/29 14:24:27;;;;;;;;;1.00;0.25;;;;;;;;5090253;27;62013;-76
2022/05/29 14:26:59;;;;;;;;;0.33;0.00;;;;;;;;5095034;27;61757;-75
2022/05/29 14:29:29;;;;;;;;;0.00;0.00;;;;;;;;5102229;27;61744;-75
2022/05/29 14:32:09;;;;;;;;;0.33;0.00;;;;;;;;5103561;27;62336;-74
2022/05/29 14:34:53;;;;;;;;;1.00;0.00;;;;;;;;5102842;27;62035;-75
2022/05/29 14:37:21;;;;;;;;;0.00;0.00;;;;;;;;5102943;27;61610;-74
2022/05/29 14:40:05;;;;;;;;;0.33;0.33;;;;;;;;5101948;27;61973;-74
2022/05/29 14:42:35;;;;;;;;;0.00;0.00;;;;;;;;5103423;27;61745;-75
2022/05/29 14:45:14;;;;;;;;;1.00;1.00;;;;;;;;5102906;27;61729;-74
2022/05/29 14:47:39;;;;;;;;;0.00;0.00;;;;;;;;5101486;27;61892;-75
2022/05/29 14:50:04;;;;;;;;;0.00;0.00;;;;;;;;5103406;27;61909;-75
2022/05/29 14:52:49;;;;;;;;;0.00;0.00;;;;;;;;5103304;27;61629;-74
2022/05/29 14:55:16;;;;;;;;;0.00;0.00;;;;;;;;5102515;27;61788;-75
2022/05/29 14:57:52;;;;;;;;;1.00;0.00;;;;;;;;5101503;27;61899;-75
2022/05/29 15:00:22;;;;;;;;;1.00;0.00;;;;;;;;5103287;27;61762;-75
2022/05/29 15:02:47;;;;;;;;;0.00;0.00;;;;;;;;5103240;27;61936;-75
2022/05/29 15:05:15;;;;;;;;;0.00;0.00;;;;;;;;5101093;27;64602;-74
2022/05/29 15:10:32;;;;;;;;;0.00;0.00;;;;;;;;5103124;27;61777;-75
2022/05/29 15:13:01;;;;;;;;;0.00;0.00;;;;;;;;5103266;27;61746;-75
2022/05/29 15:15:31;;;;;;;;;0.00;0.00;;;;;;;;5102368;27;62888;-74
2022/05/29 15:18:13;;;;;;;;;0.00;0.00;;;;;;;;5102300;27;61812;-75
2022/05/29 15:26:22;;;;;;;;;0.00;0.00;;;;;;;;5102144;27;61736;-75
2022/05/29 15:28:49;;;;;;;;;0.00;0.00;;;;;;;;5102839;27;61749;-75
2022/05/29 15:31:20;;;;;;;;;2.00;1.00;;;;;;;;5101166;27;62127;-75
2022/05/29 15:33:54;;;;;;;;;0.00;0.00;;;;;;;;5102889;27;61677;-75
2022/05/29 15:36:26;;;;;;;;;0.00;0.00;;;;;;;;5102048;27;61831;-75
2022/05/29 15:39:11;;;;;;;;;0.00;0.00;;;;;;;;5102159;27;61682;-75
2022/05/29 15:41:49;;;;;;;;;1.00;0.00;;;;;;;;5102744;27;61773;-74
2022/05/29 15:44:38;;;;;;;;;0.00;0.00;;;;;;;;5101466;27;61794;-75
2022/05/29 15:47:09;;;;;;;;;0.00;0.00;;;;;;;;5098487;27;61768;-75
2022/05/29 15:49:54;;;;;;;;;0.00;0.00;;;;;;;;5102044;27;62150;-75